sensor_id;sensor_type;location;lat;lon;timestamp;pressure;altitude;pressure_sealevel;temperature;humidity
18918;BME280;9591;52.742;13.650;2023-03-26T00:00:40;99559.56;;;10.73;100.00
18918;BME280;9591;52.742;13.650;2023-03-26T00:03:29;99618.91;;;11.03;100.00
18918;BME280;9591;52.742;13.650;2023-03-26T00:06:16;99630.13;;;11.08;100.00
18918;BME280;9591;52.742;13.650;2023-03-26T00:09:04;99621.34;;;11.08;100.00
18918;BME280;9591;52.742;13.650;2023-03-26T00:11:51;99626.41;;;10.95;100.00
18918;BME280;9591;52.742;13.650;2023-03-26T00:14:38;99634.56;;;10.91;100.00
18918;BME280;9591;52.742;13.650;2023-03-26T00:17:25;99627.25;;;10.96;100.00
18918;BME280;9591;52.742;13.650;2023-03-26T00:20:13;99637.00;;;10.95;100.00
18918;BME280;9591;52.742;13.650;2023-03-26T00:23:00;99644.94;;;10.95;100.00
18918;BME280;9591;52.742;13.650;2023-03-26T00:25:48;99627.50;;;11.08;100.00
18918;BME280;9591;52.742;13.650;2023-03-26T00:28:35;99626.56;;;11.09;100.00
18918;BME280;9591;52.742;13.650;2023-03-26T00:31:22;99636.53;;;10.87;100.00
18918;BME280;9591;52.742;13.650;2023-03-26T00:34:09;99636.22;;;10.76;100.00
18918;BME280;9591;52.742;13.650;2023-03-26T00:37:04;99631.00;;;10.92;100.00
18918;BME280;9591;52.742;13.650;2023-03-26T00:39:56;99627.03;;;10.83;100.00
18918;BME280;9591;52.742;13.650;2023-03-26T00:42:46;99631.84;;;10.92;100.00
18918;BME280;9591;52.742;13.650;2023-03-26T00:45:33;99632.63;;;10.94;100.00
18918;BME280;9591;52.742;13.650;2023-03-26T00:48:21;99631.63;;;10.97;100.00
18918;BME280;9591;52.742;13.650;2023-03-26T00:51:27;99645.88;;;10.94;100.00
18918;BME280;9591;52.742;13.650;2023-03-26T00:54:15;99643.53;;;11.05;100.00
18918;BME280;9591;52.742;13.650;2023-03-26T00:57:02;99646.41;;;11.01;100.00
18918;BME280;9591;52.742;13.650;2023-03-26T00:59:51;99636.38;;;10.90;100.00
18918;BME280;9591;52.742;13.650;2023-03-26T01:02:37;99642.59;;;10.89;100.00
18918;BME280;9591;52.742;13.650;2023-03-26T01:05:44;99643.69;;;10.85;100.00
18918;BME280;9591;52.742;13.650;2023-03-26T01:08:32;99638.47;;;10.83;100.00
18918;BME280;9591;52.742;13.650;2023-03-26T01:11:24;99634.03;;;10.84;100.00
18918;BME280;9591;52.742;13.650;2023-03-26T01:14:14;99656.06;;;10.84;100.00
18918;BME280;9591;52.742;13.650;2023-03-26T01:17:03;99673.44;;;10.90;100.00
18918;BME280;9591;52.742;13.650;2023-03-26T01:19:56;99664.13;;;11.00;100.00
18918;BME280;9591;52.742;13.650;2023-03-26T01:23:03;99661.59;;;10.80;100.00
18918;BME280;9591;52.742;13.650;2023-03-26T01:26:00;99652.94;;;10.76;100.00
18918;BME280;9591;52.742;13.650;2023-03-26T01:28:54;99655.81;;;10.55;100.00
18918;BME280;9591;52.742;13.650;2023-03-26T01:31:48;99655.56;;;10.59;100.00
18918;BME280;9591;52.742;13.650;2023-03-26T01:34:48;99655.94;;;10.51;100.00
18918;BME280;9591;52.742;13.650;2023-03-26T01:37:45;99659.72;;;10.29;100.00
18918;BME280;9591;52.742;13.650;2023-03-26T01:40:42;99658.50;;;10.36;100.00
18918;BME280;9591;52.742;13.650;2023-03-26T01:43:36;99653.59;;;10.28;100.00
18918;BME280;9591;52.742;13.650;2023-03-26T01:46:26;99652.97;;;10.40;100.00
18918;BME280;9591;52.742;13.650;2023-03-26T01:49:13;99659.91;;;10.43;100.00
18918;BME280;9591;52.742;13.650;2023-03-26T01:52:00;99652.81;;;10.26;100.00
18918;BME280;9591;52.742;13.650;2023-03-26T01:54:47;99658.00;;;10.28;100.00
18918;BME280;9591;52.742;13.650;2023-03-26T01:57:38;99668.25;;;10.35;100.00
18918;BME280;9591;52.742;13.650;2023-03-26T02:00:38;99661.88;;;10.39;100.00
18918;BME280;9591;52.742;13.650;2023-03-26T02:03:30;99656.44;;;10.24;100.00
18918;BME280;9591;52.742;13.650;2023-03-26T02:06:21;99660.13;;;10.01;100.00
18918;BME280;9591;52.742;13.650;2023-03-26T02:09:19;99666.88;;;10.27;100.00
18918;BME280;9591;52.742;13.650;2023-03-26T02:12:08;99667.91;;;10.41;100.00
18918;BME280;9591;52.742;13.650;2023-03-26T02:14:58;99661.81;;;10.22;100.00
18918;BME280;9591;52.742;13.650;2023-03-26T02:17:47;99670.16;;;10.32;100.00
18918;BME280;9591;52.742;13.650;2023-03-26T02:20:34;99676.88;;;10.39;100.00
18918;BME280;9591;52.742;13.650;2023-03-26T02:23:21;99675.31;;;10.35;100.00
18918;BME280;9591;52.742;13.650;2023-03-26T02:26:09;99686.13;;;10.30;100.00
18918;BME280;9591;52.742;13.650;2023-03-26T02:29:09;99663.53;;;10.23;100.00
18918;BME280;9591;52.742;13.650;2023-03-26T02:31:58;99682.19;;;10.39;100.00
18918;BME280;9591;52.742;13.650;2023-03-26T02:34:48;99684.22;;;10.51;100.00
18918;BME280;9591;52.742;13.650;2023-03-26T02:37:36;99684.97;;;10.36;100.00
18918;BME280;9591;52.742;13.650;2023-03-26T02:40:30;99689.69;;;10.65;100.00
18918;BME280;9591;52.742;13.650;2023-03-26T02:43:17;99685.25;;;10.66;100.00
18918;BME280;9591;52.742;13.650;2023-03-26T02:46:04;99681.53;;;10.70;100.00
18918;BME280;9591;52.742;13.650;2023-03-26T02:49:08;99687.91;;;10.66;100.00
18918;BME280;9591;52.742;13.650;2023-03-26T02:51:57;99695.06;;;10.64;100.00
18918;BME280;9591;52.742;13.650;2023-03-26T02:54:45;99688.78;;;10.47;100.00
18918;BME280;9591;52.742;13.650;2023-03-26T02:57:37;99692.59;;;10.42;100.00
18918;BME280;9591;52.742;13.650;2023-03-26T03:00:24;99697.50;;;10.68;100.00
18918;BME280;9591;52.742;13.650;2023-03-26T03:03:11;99693.38;;;10.80;100.00
18918;BME280;9591;52.742;13.650;2023-03-26T03:06:17;99689.31;;;10.73;100.00
18918;BME280;9591;52.742;13.650;2023-03-26T03:09:10;99690.88;;;10.77;100.00
18918;BME280;9591;52.742;13.650;2023-03-26T03:12:20;99696.78;;;10.65;100.00
18918;BME280;9591;52.742;13.650;2023-03-26T03:15:08;99701.16;;;10.66;100.00
18918;BME280;9591;52.742;13.650;2023-03-26T03:17:55;99693.28;;;10.64;100.00
18918;BME280;9591;52.742;13.650;2023-03-26T03:20:45;99699.63;;;10.79;100.00
18918;BME280;9591;52.742;13.650;2023-03-26T03:23:32;99706.22;;;10.70;100.00
18918;BME280;9591;52.742;13.650;2023-03-26T03:26:28;99705.06;;;10.76;100.00
18918;BME280;9591;52.742;13.650;2023-03-26T03:29:21;99709.25;;;10.63;100.00
18918;BME280;9591;52.742;13.650;2023-03-26T03:32:09;99705.13;;;10.74;100.00
18918;BME280;9591;52.742;13.650;2023-03-26T03:35:03;99706.94;;;10.74;100.00
18918;BME280;9591;52.742;13.650;2023-03-26T03:37:51;99704.09;;;10.60;100.00
18918;BME280;9591;52.742;13.650;2023-03-26T03:40:37;99707.94;;;10.71;100.00
18918;BME280;9591;52.742;13.650;2023-03-26T03:43:26;99706.78;;;10.77;100.00
18918;BME280;9591;52.742;13.650;2023-03-26T03:46:24;99710.09;;;10.63;100.00
18918;BME280;9591;52.742;13.650;2023-03-26T03:49:11;99721.53;;;10.64;100.00
18918;BME280;9591;52.742;13.650;2023-03-26T03:51:58;99721.81;;;10.76;100.00
18918;BME280;9591;52.742;13.650;2023-03-26T03:54:54;99723.19;;;10.66;100.00
18918;BME280;9591;52.742;13.650;2023-03-26T03:58:05;99730.88;;;10.90;100.00
18918;BME280;9591;52.742;13.650;2023-03-26T04:00:55;99729.06;;;10.90;100.00
18918;BME280;9591;52.742;13.650;2023-03-26T04:04:13;99731.72;;;10.90;100.00
18918;BME280;9591;52.742;13.650;2023-03-26T04:07:11;99719.25;;;10.92;100.00
18918;BME280;9591;52.742;13.650;2023-03-26T04:10:17;99729.78;;;10.94;100.00
18918;BME280;9591;52.742;13.650;2023-03-26T04:13:22;99721.81;;;10.76;100.00
18918;BME280;9591;52.742;13.650;2023-03-26T04:16:14;99726.31;;;10.74;100.00
18918;BME280;9591;52.742;13.650;2023-03-26T04:19:02;99725.28;;;10.96;100.00
18918;BME280;9591;52.742;13.650;2023-03-26T04:21:49;99721.19;;;10.71;100.00
18918;BME280;9591;52.742;13.650;2023-03-26T04:24:38;99735.28;;;10.53;100.00
18918;BME280;9591;52.742;13.650;2023-03-26T04:27:45;99681.53;;;10.34;100.00
18918;BME280;9591;52.742;13.650;2023-03-26T04:30:53;99731.63;;;10.74;100.00
18918;BME280;9591;52.742;13.650;2023-03-26T04:33:51;99706.31;;;10.50;100.00
18918;BME280;9591;52.742;13.650;2023-03-26T04:36:40;99736.34;;;10.68;100.00
18918;BME280;9591;52.742;13.650;2023-03-26T04:39:27;99742.44;;;10.70;100.00
18918;BME280;9591;52.742;13.650;2023-03-26T04:42:47;99739.41;;;10.77;100.00
18918;BME280;9591;52.742;13.650;2023-03-26T04:45:48;99749.19;;;10.94;100.00
18918;BME280;9591;52.742;13.650;2023-03-26T04:48:36;99735.47;;;10.86;100.00
18918;BME280;9591;52.742;13.650;2023-03-26T04:51:32;99699.22;;;10.69;100.00
18918;BME280;9591;52.742;13.650;2023-03-26T04:54:29;99743.97;;;10.93;100.00
18918;BME280;9591;52.742;13.650;2023-03-26T04:57:25;99745.38;;;11.00;100.00
18918;BME280;9591;52.742;13.650;2023-03-26T05:00:26;99742.44;;;11.06;100.00
18918;BME280;9591;52.742;13.650;2023-03-26T05:03:15;99743.91;;;11.11;100.00
18918;BME280;9591;52.742;13.650;2023-03-26T05:06:08;99755.69;;;11.06;100.00
18918;BME280;9591;52.742;13.650;2023-03-26T05:08:57;99741.56;;;11.05;100.00
18918;BME280;9591;52.742;13.650;2023-03-26T05:12:07;99738.66;;;10.93;100.00
18918;BME280;9591;52.742;13.650;2023-03-26T05:15:08;99738.50;;;10.96;100.00
18918;BME280;9591;52.742;13.650;2023-03-26T05:18:21;99747.09;;;11.01;100.00
18918;BME280;9591;52.742;13.650;2023-03-26T05:21:10;99749.13;;;10.96;100.00
18918;BME280;9591;52.742;13.650;2023-03-26T05:23:59;99747.94;;;11.01;100.00
18918;BME280;9591;52.742;13.650;2023-03-26T05:26:46;99745.69;;;10.94;100.00
18918;BME280;9591;52.742;13.650;2023-03-26T05:29:39;99758.56;;;11.01;100.00
18918;BME280;9591;52.742;13.650;2023-03-26T05:32:27;99757.69;;;11.01;100.00
18918;BME280;9591;52.742;13.650;2023-03-26T05:35:14;99751.69;;;10.97;100.00
18918;BME280;9591;52.742;13.650;2023-03-26T05:38:01;99755.81;;;11.03;100.00
18918;BME280;9591;52.742;13.650;2023-03-26T05:40:49;99759.56;;;10.99;100.00
18918;BME280;9591;52.742;13.650;2023-03-26T05:43:37;99756.28;;;10.94;100.00
18918;BME280;9591;52.742;13.650;2023-03-26T05:46:29;99758.78;;;10.97;100.00
18918;BME280;9591;52.742;13.650;2023-03-26T05:49:16;99758.44;;;11.22;100.00
18918;BME280;9591;52.742;13.650;2023-03-26T05:52:03;99753.25;;;11.01;100.00
18918;BME280;9591;52.742;13.650;2023-03-26T05:55:10;99761.69;;;11.27;100.00
18918;BME280;9591;52.742;13.650;2023-03-26T05:58:17;99758.66;;;11.17;100.00
18918;BME280;9591;52.742;13.650;2023-03-26T06:01:23;99753.88;;;11.41;100.00
18918;BME280;9591;52.742;13.650;2023-03-26T06:04:28;99762.44;;;11.29;100.00
18918;BME280;9591;52.742;13.650;2023-03-26T06:07:45;99763.31;;;11.29;100.00
18918;BME280;9591;52.742;13.650;2023-03-26T06:10:36;99721.94;;;11.09;100.00
18918;BME280;9591;52.742;13.650;2023-03-26T06:13:24;99761.59;;;11.28;100.00
18918;BME280;9591;52.742;13.650;2023-03-26T06:16:12;99772.06;;;11.14;100.00
18918;BME280;9591;52.742;13.650;2023-03-26T06:19:14;99770.47;;;11.27;100.00
18918;BME280;9591;52.742;13.650;2023-03-26T06:22:17;99773.84;;;11.31;100.00
18918;BME280;9591;52.742;13.650;2023-03-26T06:25:27;99771.75;;;11.37;100.00
18918;BME280;9591;52.742;13.650;2023-03-26T06:28:26;99780.00;;;11.31;100.00
18918;BME280;9591;52.742;13.650;2023-03-26T06:31:22;99782.44;;;11.53;99.82
18918;BME280;9591;52.742;13.650;2023-03-26T06:34:14;99781.88;;;11.64;99.42
18918;BME280;9591;52.742;13.650;2023-03-26T06:37:01;99782.72;;;11.64;98.48
18918;BME280;9591;52.742;13.650;2023-03-26T06:39:48;99775.25;;;11.55;98.09
18918;BME280;9591;52.742;13.650;2023-03-26T06:42:37;99783.34;;;11.35;97.27
18918;BME280;9591;52.742;13.650;2023-03-26T06:46:04;99780.69;;;11.35;97.25
18918;BME280;9591;52.742;13.650;2023-03-26T06:49:10;99785.47;;;11.63;95.15
18918;BME280;9591;52.742;13.650;2023-03-26T06:52:17;99790.69;;;11.99;93.63
18918;BME280;9591;52.742;13.650;2023-03-26T06:55:16;99787.84;;;12.35;91.14
18918;BME280;9591;52.742;13.650;2023-03-26T06:58:21;99797.66;;;12.17;90.39
18918;BME280;9591;52.742;13.650;2023-03-26T07:01:28;99789.34;;;12.23;89.71
18918;BME280;9591;52.742;13.650;2023-03-26T07:04:34;99788.25;;;12.27;89.24
18918;BME280;9591;52.742;13.650;2023-03-26T07:07:39;99779.03;;;12.34;88.81
18918;BME280;9591;52.742;13.650;2023-03-26T07:10:50;99783.06;;;12.41;89.67
18918;BME280;9591;52.742;13.650;2023-03-26T07:14:12;99780.41;;;12.57;88.71
18918;BME280;9591;52.742;13.650;2023-03-26T07:17:21;99785.84;;;12.23;90.24
18918;BME280;9591;52.742;13.650;2023-03-26T07:20:17;99777.22;;;12.35;88.93
18918;BME280;9591;52.742;13.650;2023-03-26T07:23:04;99766.94;;;12.13;90.58
18918;BME280;9591;52.742;13.650;2023-03-26T07:25:59;99784.94;;;11.91;88.50
18918;BME280;9591;52.742;13.650;2023-03-26T07:29:07;99780.72;;;11.52;91.83
18918;BME280;9591;52.742;13.650;2023-03-26T07:32:18;99787.56;;;11.39;91.17
18918;BME280;9591;52.742;13.650;2023-03-26T07:35:16;99791.06;;;11.05;91.99
18918;BME280;9591;52.742;13.650;2023-03-26T07:38:45;99799.25;;;10.81;94.13
18918;BME280;9591;52.742;13.650;2023-03-26T07:42:01;99796.38;;;10.86;93.58
18918;BME280;9591;52.742;13.650;2023-03-26T07:45:34;99805.06;;;10.71;95.54
18918;BME280;9591;52.742;13.650;2023-03-26T07:48:43;99798.84;;;10.53;96.43
18918;BME280;9591;52.742;13.650;2023-03-26T07:51:40;99796.19;;;10.53;97.19
18918;BME280;9591;52.742;13.650;2023-03-26T07:54:33;99787.88;;;10.42;95.33
18918;BME280;9591;52.742;13.650;2023-03-26T07:58:03;99797.09;;;10.90;94.32
18918;BME280;9591;52.742;13.650;2023-03-26T08:01:11;99789.41;;;11.02;91.64
18918;BME280;9591;52.742;13.650;2023-03-26T08:04:14;99789.16;;;11.26;89.32
18918;BME280;9591;52.742;13.650;2023-03-26T08:07:59;99795.06;;;11.65;87.57
18918;BME280;9591;52.742;13.650;2023-03-26T08:11:04;99797.97;;;11.78;85.96
18918;BME280;9591;52.742;13.650;2023-03-26T08:14:15;99802.09;;;12.01;83.25
18918;BME280;9591;52.742;13.650;2023-03-26T08:17:09;99805.84;;;12.45;83.34
18918;BME280;9591;52.742;13.650;2023-03-26T08:20:05;99799.19;;;12.54;81.09
18918;BME280;9591;52.742;13.650;2023-03-26T08:23:00;99803.31;;;12.91;79.32
18918;BME280;9591;52.742;13.650;2023-03-26T08:25:57;99784.88;;;12.88;78.43
18918;BME280;9591;52.742;13.650;2023-03-26T08:28:55;99790.28;;;12.87;78.59
18918;BME280;9591;52.742;13.650;2023-03-26T08:31:45;99791.72;;;12.45;79.06
18918;BME280;9591;52.742;13.650;2023-03-26T08:34:33;99791.28;;;12.53;78.76
18918;BME280;9591;52.742;13.650;2023-03-26T08:37:20;99798.84;;;12.76;78.14
18918;BME280;9591;52.742;13.650;2023-03-26T08:40:09;99793.94;;;12.53;79.73
18918;BME280;9591;52.742;13.650;2023-03-26T08:43:25;99798.63;;;12.32;80.53
18918;BME280;9591;52.742;13.650;2023-03-26T08:46:27;99792.69;;;12.11;82.04
18918;BME280;9591;52.742;13.650;2023-03-26T08:49:52;99797.56;;;12.19;80.34
18918;BME280;9591;52.742;13.650;2023-03-26T08:56:07;99793.38;;;12.63;79.48
18918;BME280;9591;52.742;13.650;2023-03-26T09:02:46;99785.47;;;12.62;79.32
18918;BME280;9591;52.742;13.650;2023-03-26T09:06:08;99789.34;;;12.88;77.71
18918;BME280;9591;52.742;13.650;2023-03-26T09:19:56;99782.97;;;13.22;77.24
18918;BME280;9591;52.742;13.650;2023-03-26T09:23:18;99779.19;;;13.26;77.91
18918;BME280;9591;52.742;13.650;2023-03-26T09:26:22;99781.19;;;12.75;80.92
18918;BME280;9591;52.742;13.650;2023-03-26T09:33:02;99769.38;;;12.80;78.66
18918;BME280;9591;52.742;13.650;2023-03-26T09:36:14;99773.31;;;12.89;78.96
18918;BME280;9591;52.742;13.650;2023-03-26T09:39:10;99764.47;;;12.89;80.79
18918;BME280;9591;52.742;13.650;2023-03-26T09:42:07;99769.41;;;13.10;79.40
18918;BME280;9591;52.742;13.650;2023-03-26T09:45:30;99759.19;;;13.34;77.18
18918;BME280;9591;52.742;13.650;2023-03-26T09:51:55;99771.03;;;13.13;78.38
18918;BME280;9591;52.742;13.650;2023-03-26T09:55:16;99764.91;;;12.81;79.82
18918;BME280;9591;52.742;13.650;2023-03-26T09:58:18;99771.03;;;13.13;79.53
18918;BME280;9591;52.742;13.650;2023-03-26T10:01:16;99767.47;;;12.98;80.06
18918;BME280;9591;52.742;13.650;2023-03-26T10:04:35;99763.59;;;13.20;78.20
18918;BME280;9591;52.742;13.650;2023-03-26T10:07:45;99774.13;;;13.05;78.57
18918;BME280;9591;52.742;13.650;2023-03-26T10:10:39;99772.38;;;12.90;79.38
18918;BME280;9591;52.742;13.650;2023-03-26T10:13:32;99702.38;;;12.44;81.49
18918;BME280;9591;52.742;13.650;2023-03-26T10:16:31;99771.84;;;12.99;81.94
18918;BME280;9591;52.742;13.650;2023-03-26T10:19:37;99771.16;;;12.80;80.64
18918;BME280;9591;52.742;13.650;2023-03-26T10:22:38;99771.72;;;13.01;80.09
18918;BME280;9591;52.742;13.650;2023-03-26T10:25:39;99769.56;;;13.07;80.02
18918;BME280;9591;52.742;13.650;2023-03-26T10:28:40;99774.94;;;13.37;80.12
18918;BME280;9591;52.742;13.650;2023-03-26T10:31:38;99764.13;;;13.40;78.43
18918;BME280;9591;52.742;13.650;2023-03-26T10:34:47;99759.94;;;13.81;75.62
18918;BME280;9591;52.742;13.650;2023-03-26T10:37:46;99763.41;;;13.23;78.33
18918;BME280;9591;52.742;13.650;2023-03-26T10:40:43;99771.91;;;13.73;75.08
18918;BME280;9591;52.742;13.650;2023-03-26T10:43:47;99767.94;;;13.81;75.37
18918;BME280;9591;52.742;13.650;2023-03-26T10:47:17;99771.44;;;13.37;74.71
18918;BME280;9591;52.742;13.650;2023-03-26T10:50:19;99773.53;;;13.76;73.87
18918;BME280;9591;52.742;13.650;2023-03-26T10:53:17;99768.78;;;13.95;71.72
18918;BME280;9591;52.742;13.650;2023-03-26T10:56:13;99781.25;;;14.09;70.19
18918;BME280;9591;52.742;13.650;2023-03-26T10:59:05;99765.47;;;14.06;69.60
18918;BME280;9591;52.742;13.650;2023-03-26T11:02:00;99759.34;;;13.61;69.73
18918;BME280;9591;52.742;13.650;2023-03-26T11:04:55;99755.06;;;13.59;73.14
18918;BME280;9591;52.742;13.650;2023-03-26T11:07:51;99760.69;;;13.97;71.62
18918;BME280;9591;52.742;13.650;2023-03-26T11:10:49;99753.25;;;14.73;68.13
18918;BME280;9591;52.742;13.650;2023-03-26T11:13:46;99760.44;;;14.44;67.42
18918;BME280;9591;52.742;13.650;2023-03-26T11:16:43;99765.56;;;14.47;67.19
18918;BME280;9591;52.742;13.650;2023-03-26T11:19:39;99773.94;;;14.55;65.48
18918;BME280;9591;52.742;13.650;2023-03-26T11:22:32;99767.44;;;13.74;68.46
18918;BME280;9591;52.742;13.650;2023-03-26T11:25:33;99766.78;;;13.70;70.08
18918;BME280;9591;52.742;13.650;2023-03-26T11:28:32;99764.00;;;13.28;73.46
18918;BME280;9591;52.742;13.650;2023-03-26T11:31:28;99759.25;;;13.63;73.90
18918;BME280;9591;52.742;13.650;2023-03-26T11:34:25;99759.97;;;13.51;71.84
18918;BME280;9591;52.742;13.650;2023-03-26T11:37:16;99755.81;;;13.61;74.07
18918;BME280;9591;52.742;13.650;2023-03-26T11:40:12;99748.25;;;13.69;70.12
18918;BME280;9591;52.742;13.650;2023-03-26T11:43:03;99754.81;;;14.34;68.42
18918;BME280;9591;52.742;13.650;2023-03-26T11:45:51;99747.50;;;14.79;63.92
18918;BME280;9591;52.742;13.650;2023-03-26T11:48:40;99745.09;;;14.62;63.20
18918;BME280;9591;52.742;13.650;2023-03-26T11:51:30;99748.03;;;14.71;64.37
18918;BME280;9591;52.742;13.650;2023-03-26T11:54:18;99733.88;;;14.57;63.67
18918;BME280;9591;52.742;13.650;2023-03-26T11:57:07;99735.69;;;13.99;67.07
18918;BME280;9591;52.742;13.650;2023-03-26T11:59:59;99745.13;;;14.19;65.83
18918;BME280;9591;52.742;13.650;2023-03-26T12:02:57;99730.94;;;14.19;64.43
18918;BME280;9591;52.742;13.650;2023-03-26T12:05:51;99736.66;;;14.27;64.35
18918;BME280;9591;52.742;13.650;2023-03-26T12:08:42;99736.56;;;13.86;63.23
18918;BME280;9591;52.742;13.650;2023-03-26T12:11:32;99738.25;;;14.01;64.63
18918;BME280;9591;52.742;13.650;2023-03-26T12:14:22;99741.13;;;13.84;66.33
18918;BME280;9591;52.742;13.650;2023-03-26T12:17:14;99748.34;;;14.10;65.38
18918;BME280;9591;52.742;13.650;2023-03-26T12:20:34;99737.91;;;13.78;66.79
18918;BME280;9591;52.742;13.650;2023-03-26T12:23:52;99733.69;;;13.89;65.15
18918;BME280;9591;52.742;13.650;2023-03-26T12:26:42;99729.91;;;13.93;66.51
18918;BME280;9591;52.742;13.650;2023-03-26T12:29:30;99727.06;;;13.82;67.12
18918;BME280;9591;52.742;13.650;2023-03-26T12:32:20;99721.19;;;13.76;64.03
18918;BME280;9591;52.742;13.650;2023-03-26T12:35:25;99712.97;;;13.94;63.08
18918;BME280;9591;52.742;13.650;2023-03-26T12:38:21;99719.91;;;14.10;64.36
18918;BME280;9591;52.742;13.650;2023-03-26T12:41:09;99711.16;;;14.37;62.44
18918;BME280;9591;52.742;13.650;2023-03-26T12:44:21;99709.56;;;13.92;66.72
18918;BME280;9591;52.742;13.650;2023-03-26T12:47:31;99692.47;;;13.67;64.28
18918;BME280;9591;52.742;13.650;2023-03-26T12:50:55;99709.78;;;13.74;65.85
18918;BME280;9591;52.742;13.650;2023-03-26T12:53:56;99710.03;;;13.98;65.93
18918;BME280;9591;52.742;13.650;2023-03-26T12:56:53;99714.31;;;14.43;63.96
18918;BME280;9591;52.742;13.650;2023-03-26T13:00:08;99706.69;;;14.52;62.30
18918;BME280;9591;52.742;13.650;2023-03-26T13:03:14;99706.41;;;14.28;62.06
18918;BME280;9591;52.742;13.650;2023-03-26T13:06:15;99704.22;;;14.06;63.97
18918;BME280;9591;52.742;13.650;2023-03-26T13:09:27;99706.31;;;14.43;61.62
18918;BME280;9591;52.742;13.650;2023-03-26T13:12:25;99701.25;;;14.53;59.63
18918;BME280;9591;52.742;13.650;2023-03-26T13:15:23;99707.28;;;14.14;60.78
18918;BME280;9591;52.742;13.650;2023-03-26T13:18:22;99703.28;;;14.21;62.52
18918;BME280;9591;52.742;13.650;2023-03-26T13:21:18;99694.13;;;14.25;63.77
18918;BME280;9591;52.742;13.650;2023-03-26T13:27:13;99706.56;;;14.39;60.96
18918;BME280;9591;52.742;13.650;2023-03-26T13:30:13;99692.59;;;14.50;61.70
18918;BME280;9591;52.742;13.650;2023-03-26T13:33:12;99698.47;;;14.40;64.05
18918;BME280;9591;52.742;13.650;2023-03-26T13:36:09;99703.44;;;14.32;63.06
18918;BME280;9591;52.742;13.650;2023-03-26T13:39:16;99696.53;;;13.87;63.96
18918;BME280;9591;52.742;13.650;2023-03-26T13:42:20;99681.25;;;13.62;62.35
18918;BME280;9591;52.742;13.650;2023-03-26T13:45:22;99693.78;;;14.03;62.39
18918;BME280;9591;52.742;13.650;2023-03-26T13:48:15;99693.38;;;14.09;63.08
18918;BME280;9591;52.742;13.650;2023-03-26T13:51:10;99684.94;;;14.02;61.52
18918;BME280;9591;52.742;13.650;2023-03-26T13:54:04;99690.06;;;14.05;62.12
18918;BME280;9591;52.742;13.650;2023-03-26T13:57:00;99689.59;;;14.13;61.96
18918;BME280;9591;52.742;13.650;2023-03-26T13:59:53;99691.19;;;14.16;61.81
18918;BME280;9591;52.742;13.650;2023-03-26T14:02:42;99681.13;;;13.92;62.69
18918;BME280;9591;52.742;13.650;2023-03-26T14:05:37;99683.34;;;13.86;62.08
18918;BME280;9591;52.742;13.650;2023-03-26T14:08:28;99689.91;;;13.66;60.34
18918;BME280;9591;52.742;13.650;2023-03-26T14:11:20;99687.34;;;13.78;61.88
18918;BME280;9591;52.742;13.650;2023-03-26T14:14:12;99688.66;;;13.71;59.94
18918;BME280;9591;52.742;13.650;2023-03-26T14:17:04;99694.72;;;13.88;61.91
18918;BME280;9591;52.742;13.650;2023-03-26T14:26:45;99712.41;;;14.17;60.07
18918;BME280;9591;52.742;13.650;2023-03-26T14:29:47;99705.16;;;14.19;60.81
18918;BME280;9591;52.742;13.650;2023-03-26T14:32:51;99690.53;;;14.26;60.92
18918;BME280;9591;52.742;13.650;2023-03-26T14:35:57;99693.09;;;14.28;60.32
18918;BME280;9591;52.742;13.650;2023-03-26T14:39:07;99693.94;;;14.28;58.85
18918;BME280;9591;52.742;13.650;2023-03-26T14:42:01;99693.56;;;14.34;61.02
18918;BME280;9591;52.742;13.650;2023-03-26T14:45:08;99693.56;;;14.34;60.69
18918;BME280;9591;52.742;13.650;2023-03-26T14:48:26;99700.63;;;14.07;59.69
18918;BME280;9591;52.742;13.650;2023-03-26T14:51:30;99699.84;;;13.91;59.73
18918;BME280;9591;52.742;13.650;2023-03-26T14:54:25;99684.69;;;13.78;60.42
18918;BME280;9591;52.742;13.650;2023-03-26T14:57:34;99696.66;;;13.71;60.46
18918;BME280;9591;52.742;13.650;2023-03-26T15:00:38;99693.16;;;13.85;61.45
18918;BME280;9591;52.742;13.650;2023-03-26T15:07:44;99690.84;;;13.79;60.15
18918;BME280;9591;52.742;13.650;2023-03-26T15:10:57;99684.84;;;13.47;62.49
18918;BME280;9591;52.742;13.650;2023-03-26T15:13:58;99687.25;;;13.66;60.64
18918;BME280;9591;52.742;13.650;2023-03-26T15:17:15;99682.97;;;13.63;61.68
18918;BME280;9591;52.742;13.650;2023-03-26T15:20:43;99684.88;;;13.75;60.69
18918;BME280;9591;52.742;13.650;2023-03-26T15:24:21;99688.88;;;13.83;61.15
18918;BME280;9591;52.742;13.650;2023-03-26T15:27:23;99695.97;;;13.68;62.50
18918;BME280;9591;52.742;13.650;2023-03-26T15:30:31;99685.59;;;13.49;60.69
18918;BME280;9591;52.742;13.650;2023-03-26T15:33:48;99686.66;;;13.61;60.40
18918;BME280;9591;52.742;13.650;2023-03-26T15:40:24;99687.06;;;13.83;59.88
18918;BME280;9591;52.742;13.650;2023-03-26T15:43:18;99688.16;;;13.93;59.41
18918;BME280;9591;52.742;13.650;2023-03-26T15:46:24;99690.16;;;14.04;59.67
18918;BME280;9591;52.742;13.650;2023-03-26T15:49:13;99677.00;;;14.29;58.20
18918;BME280;9591;52.742;13.650;2023-03-26T15:52:14;99690.72;;;14.09;59.38
18918;BME280;9591;52.742;13.650;2023-03-26T15:55:16;99688.06;;;13.95;59.25
18918;BME280;9591;52.742;13.650;2023-03-26T15:58:12;99691.50;;;14.11;59.61
18918;BME280;9591;52.742;13.650;2023-03-26T16:01:12;99685.41;;;13.95;59.49
18918;BME280;9591;52.742;13.650;2023-03-26T16:04:13;99688.66;;;13.57;57.58
18918;BME280;9591;52.742;13.650;2023-03-26T16:07:09;99681.72;;;13.55;58.37
18918;BME280;9591;52.742;13.650;2023-03-26T16:10:15;99678.69;;;13.61;59.31
18918;BME280;9591;52.742;13.650;2023-03-26T16:13:23;99666.97;;;13.49;58.98
18918;BME280;9591;52.742;13.650;2023-03-26T16:19:47;99682.19;;;13.61;58.53
18918;BME280;9591;52.742;13.650;2023-03-26T16:22:39;99682.13;;;13.77;58.80